sensor_id;sensor_type;location;lat;lon;timestamp;P1;durP1;ratioP1;P2;durP2;ratioP2
37383;SDS011;23258;49.718;11.082;2024-02-21T00:00:33;10.50;;;3.17;;
37383;SDS011;23258;49.718;11.082;2024-02-21T00:03:05;7.07;;;3.15;;
37383;SDS011;23258;49.718;11.082;2024-02-21T00:05:37;3.55;;;3.15;;
37383;SDS011;23258;49.718;11.082;2024-02-21T00:08:07;5.03;;;3.13;;
37383;SDS011;23258;49.718;11.082;2024-02-21T00:10:37;5.18;;;3.10;;
37383;SDS011;23258;49.718;11.082;2024-02-21T00:13:06;4.25;;;3.70;;
37383;SDS011;23258;49.718;11.082;2024-02-21T00:15:36;8.57;;;3.40;;
37383;SDS011;23258;49.718;11.082;2024-02-21T00:18:06;7.15;;;3.38;;
37383;SDS011;23258;49.718;11.082;2024-02-21T00:20:40;7.20;;;3.58;;
37383;SDS011;23258;49.718;11.082;2024-02-21T00:23:10;6.47;;;3.95;;
37383;SDS011;23258;49.718;11.082;2024-02-21T00:25:40;6.47;;;3.63;;
37383;SDS011;23258;49.718;11.082;2024-02-21T00:28:09;4.93;;;4.10;;
37383;SDS011;23258;49.718;11.082;2024-02-21T00:30:39;4.00;;;3.05;;
37383;SDS011;23258;49.718;11.082;2024-02-21T00:33:09;7.28;;;3.70;;
37383;SDS011;23258;49.718;11.082;2024-02-21T00:35:42;9.18;;;3.65;;
37383;SDS011;23258;49.718;11.082;2024-02-21T00:38:12;5.65;;;2.92;;
37383;SDS011;23258;49.718;11.082;2024-02-21T00:40:41;6.05;;;4.32;;
37383;SDS011;23258;49.718;11.082;2024-02-21T00:43:11;4.80;;;3.35;;
37383;SDS011;23258;49.718;11.082;2024-02-21T00:45:41;3.42;;;2.70;;
37383;SDS011;23258;49.718;11.082;2024-02-21T00:48:11;4.00;;;3.60;;
37383;SDS011;23258;49.718;11.082;2024-02-21T00:50:43;5.30;;;3.40;;
37383;SDS011;23258;49.718;11.082;2024-02-21T00:53:13;6.38;;;4.28;;
37383;SDS011;23258;49.718;11.082;2024-02-21T00:55:46;9.27;;;6.05;;
37383;SDS011;23258;49.718;11.082;2024-02-21T00:58:15;6.60;;;3.38;;
37383;SDS011;23258;49.718;11.082;2024-02-21T01:00:45;6.53;;;3.25;;
37383;SDS011;23258;49.718;11.082;2024-02-21T01:03:15;4.32;;;3.92;;
37383;SDS011;23258;49.718;11.082;2024-02-21T01:05:47;7.75;;;3.70;;
37383;SDS011;23258;49.718;11.082;2024-02-21T01:08:17;7.25;;;3.42;;
37383;SDS011;23258;49.718;11.082;2024-02-21T01:10:47;6.32;;;3.58;;
37383;SDS011;23258;49.718;11.082;2024-02-21T01:13:17;5.57;;;3.85;;
37383;SDS011;23258;49.718;11.082;2024-02-21T01:15:47;3.78;;;3.03;;
37383;SDS011;23258;49.718;11.082;2024-02-21T01:18:16;8.35;;;3.50;;
37383;SDS011;23258;49.718;11.082;2024-02-21T01:20:49;4.25;;;3.35;;
37383;SDS011;23258;49.718;11.082;2024-02-21T01:23:18;5.47;;;3.60;;
37383;SDS011;23258;49.718;11.082;2024-02-21T01:25:48;9.77;;;4.20;;
37383;SDS011;23258;49.718;11.082;2024-02-21T01:28:18;7.25;;;3.75;;
37383;SDS011;23258;49.718;11.082;2024-02-21T01:30:48;5.78;;;3.97;;
37383;SDS011;23258;49.718;11.082;2024-02-21T01:33:18;3.67;;;3.35;;
37383;SDS011;23258;49.718;11.082;2024-02-21T01:35:50;5.78;;;3.90;;
37383;SDS011;23258;49.718;11.082;2024-02-21T01:38:20;7.00;;;3.78;;
37383;SDS011;23258;49.718;11.082;2024-02-21T01:40:50;8.07;;;3.97;;
37383;SDS011;23258;49.718;11.082;2024-02-21T01:43:20;7.25;;;3.78;;
37383;SDS011;23258;49.718;11.082;2024-02-21T01:45:51;6.85;;;3.47;;
37383;SDS011;23258;49.718;11.082;2024-02-21T01:48:21;5.82;;;3.38;;
37383;SDS011;23258;49.718;11.082;2024-02-21T01:50:54;5.13;;;3.90;;
37383;SDS011;23258;49.718;11.082;2024-02-21T01:53:25;5.05;;;3.05;;
37383;SDS011;23258;49.718;11.082;2024-02-21T01:55:57;5.15;;;4.10;;
37383;SDS011;23258;49.718;11.082;2024-02-21T01:58:26;4.70;;;3.55;;
37383;SDS011;23258;49.718;11.082;2024-02-21T02:00:58;6.53;;;3.63;;
37383;SDS011;23258;49.718;11.082;2024-02-21T02:03:28;6.45;;;3.28;;
37383;SDS011;23258;49.718;11.082;2024-02-21T02:06:01;7.53;;;3.53;;
37383;SDS011;23258;49.718;11.082;2024-02-21T02:08:31;4.60;;;3.55;;
37383;SDS011;23258;49.718;11.082;2024-02-21T02:11:01;5.25;;;3.63;;
37383;SDS011;23258;49.718;11.082;2024-02-21T02:13:31;8.63;;;3.90;;
37383;SDS011;23258;49.718;11.082;2024-02-21T02:16:00;5.28;;;3.67;;
37383;SDS011;23258;49.718;11.082;2024-02-21T02:18:30;6.85;;;4.03;;
37383;SDS011;23258;49.718;11.082;2024-02-21T02:21:03;9.90;;;4.45;;
37383;SDS011;23258;49.718;11.082;2024-02-21T02:23:35;11.45;;;4.60;;
37383;SDS011;23258;49.718;11.082;2024-02-21T02:26:05;10.82;;;4.55;;
37383;SDS011;23258;49.718;11.082;2024-02-21T02:28:36;5.05;;;4.32;;
37383;SDS011;23258;49.718;11.082;2024-02-21T02:31:05;12.63;;;4.88;;
37383;SDS011;23258;49.718;11.082;2024-02-21T02:33:35;4.20;;;3.47;;
37383;SDS011;23258;49.718;11.082;2024-02-21T02:36:05;10.43;;;3.58;;
37383;SDS011;23258;49.718;11.082;2024-02-21T02:38:37;5.70;;;3.08;;
37383;SDS011;23258;49.718;11.082;2024-02-21T02:41:07;5.47;;;3.97;;
37383;SDS011;23258;49.718;11.082;2024-02-21T02:43:37;8.70;;;4.30;;
37383;SDS011;23258;49.718;11.082;2024-02-21T02:46:07;5.65;;;3.78;;
37383;SDS011;23258;49.718;11.082;2024-02-21T02:48:36;6.68;;;3.90;;
37383;SDS011;23258;49.718;11.082;2024-02-21T02:51:06;9.00;;;4.07;;
37383;SDS011;23258;49.718;11.082;2024-02-21T02:53:38;9.30;;;4.32;;
37383;SDS011;23258;49.718;11.082;2024-02-21T02:56:13;7.63;;;3.80;;
37383;SDS011;23258;49.718;11.082;2024-02-21T02:58:43;4.07;;;3.75;;
37383;SDS011;23258;49.718;11.082;2024-02-21T03:01:13;8.15;;;4.05;;
37383;SDS011;23258;49.718;11.082;2024-02-21T03:03:43;4.38;;;3.97;;
37383;SDS011;23258;49.718;11.082;2024-02-21T03:06:14;9.27;;;4.05;;
37383;SDS011;23258;49.718;11.082;2024-02-21T03:08:46;4.78;;;3.53;;
37383;SDS011;23258;49.718;11.082;2024-02-21T03:11:16;6.22;;;3.85;;
37383;SDS011;23258;49.718;11.082;2024-02-21T03:13:46;5.70;;;3.78;;
37383;SDS011;23258;49.718;11.082;2024-02-21T03:16:16;7.28;;;3.63;;
37383;SDS011;23258;49.718;11.082;2024-02-21T03:18:46;5.43;;;3.40;;
37383;SDS011;23258;49.718;11.082;2024-02-21T03:21:16;3.92;;;3.40;;
37383;SDS011;23258;49.718;11.082;2024-02-21T03:23:48;7.00;;;3.63;;
37383;SDS011;23258;49.718;11.082;2024-02-21T03:26:18;5.78;;;3.88;;
37383;SDS011;23258;49.718;11.082;2024-02-21T03:28:48;11.02;;;3.83;;
37383;SDS011;23258;49.718;11.082;2024-02-21T03:31:18;5.80;;;3.70;;
37383;SDS011;23258;49.718;11.082;2024-02-21T03:33:48;7.35;;;3.63;;
37383;SDS011;23258;49.718;11.082;2024-02-21T03:36:17;4.63;;;2.90;;
37383;SDS011;23258;49.718;11.082;2024-02-21T03:38:50;5.45;;;3.53;;
37383;SDS011;23258;49.718;11.082;2024-02-21T03:41:20;4.47;;;3.95;;
37383;SDS011;23258;49.718;11.082;2024-02-21T03:43:49;3.15;;;2.88;;
37383;SDS011;23258;49.718;11.082;2024-02-21T03:46:19;4.20;;;3.42;;
37383;SDS011;23258;49.718;11.082;2024-02-21T03:48:49;8.88;;;4.13;;
37383;SDS011;23258;49.718;11.082;2024-02-21T03:51:18;3.63;;;3.33;;
37383;SDS011;23258;49.718;11.082;2024-02-21T03:53:51;9.68;;;4.25;;
37383;SDS011;23258;49.718;11.082;2024-02-21T03:56:20;4.78;;;3.85;;
37383;SDS011;23258;49.718;11.082;2024-02-21T03:58:50;9.82;;;4.22;;
37383;SDS011;23258;49.718;11.082;2024-02-21T04:01:20;6.60;;;3.42;;
37383;SDS011;23258;49.718;11.082;2024-02-21T04:03:50;5.63;;;4.05;;
37383;SDS011;23258;49.718;11.082;2024-02-21T04:06:20;5.18;;;3.50;;
37383;SDS011;23258;49.718;11.082;2024-02-21T04:08:52;5.32;;;3.13;;
37383;SDS011;23258;49.718;11.082;2024-02-21T04:11:22;4.75;;;3.50;;
37383;SDS011;23258;49.718;11.082;2024-02-21T04:13:51;5.05;;;3.30;;
37383;SDS011;23258;49.718;11.082;2024-02-21T04:16:21;3.85;;;3.55;;
37383;SDS011;23258;49.718;11.082;2024-02-21T04:18:51;7.30;;;3.92;;
37383;SDS011;23258;49.718;11.082;2024-02-21T04:21:21;9.02;;;3.97;;
37383;SDS011;23258;49.718;11.082;2024-02-21T04:23:53;10.15;;;4.43;;
37383;SDS011;23258;49.718;11.082;2024-02-21T04:26:23;4.78;;;3.83;;
37383;SDS011;23258;49.718;11.082;2024-02-21T04:28:52;5.75;;;3.65;;
37383;SDS011;23258;49.718;11.082;2024-02-21T04:31:22;9.95;;;4.28;;
37383;SDS011;23258;49.718;11.082;2024-02-21T04:33:52;4.82;;;3.75;;
37383;SDS011;23258;49.718;11.082;2024-02-21T04:36:22;6.05;;;4.03;;
37383;SDS011;23258;49.718;11.082;2024-02-21T04:38:54;6.90;;;3.50;;
37383;SDS011;23258;49.718;11.082;2024-02-21T04:41:24;6.95;;;4.32;;
37383;SDS011;23258;49.718;11.082;2024-02-21T04:43:54;9.85;;;3.40;;
37383;SDS011;23258;49.718;11.082;2024-02-21T04:46:24;5.20;;;4.13;;
37383;SDS011;23258;49.718;11.082;2024-02-21T04:48:53;5.20;;;3.55;;
37383;SDS011;23258;49.718;11.082;2024-02-21T04:51:23;9.52;;;4.20;;
37383;SDS011;23258;49.718;11.082;2024-02-21T04:53:56;8.88;;;4.50;;
37383;SDS011;23258;49.718;11.082;2024-02-21T04:56:25;6.82;;;3.70;;
37383;SDS011;23258;49.718;11.082;2024-02-21T04:58:55;6.32;;;4.13;;
37383;SDS011;23258;49.718;11.082;2024-02-21T05:01:25;6.88;;;4.63;;
37383;SDS011;23258;49.718;11.082;2024-02-21T05:03:55;8.45;;;4.07;;
37383;SDS011;23258;49.718;11.082;2024-02-21T05:06:25;5.68;;;3.85;;
37383;SDS011;23258;49.718;11.082;2024-02-21T05:08:57;4.78;;;3.95;;
37383;SDS011;23258;49.718;11.082;2024-02-21T05:11:27;4.53;;;3.30;;
37383;SDS011;23258;49.718;11.082;2024-02-21T05:13:57;4.25;;;3.50;;
37383;SDS011;23258;49.718;11.082;2024-02-21T05:16:26;5.65;;;3.20;;
37383;SDS011;23258;49.718;11.082;2024-02-21T05:18:56;8.07;;;3.72;;
37383;SDS011;23258;49.718;11.082;2024-02-21T05:21:26;4.18;;;3.40;;
37383;SDS011;23258;49.718;11.082;2024-02-21T05:23:59;5.43;;;3.83;;
37383;SDS011;23258;49.718;11.082;2024-02-21T05:26:29;7.65;;;3.85;;
37383;SDS011;23258;49.718;11.082;2024-02-21T05:28:58;6.72;;;4.15;;
37383;SDS011;23258;49.718;11.082;2024-02-21T05:31:43;6.88;;;3.25;;
37383;SDS011;23258;49.718;11.082;2024-02-21T05:34:24;6.88;;;3.80;;
37383;SDS011;23258;49.718;11.082;2024-02-21T05:36:54;6.53;;;3.75;;
37383;SDS011;23258;49.718;11.082;2024-02-21T05:39:24;4.18;;;3.05;;
37383;SDS011;23258;49.718;11.082;2024-02-21T05:41:56;7.15;;;4.80;;
37383;SDS011;23258;49.718;11.082;2024-02-21T05:44:26;5.00;;;4.00;;
37383;SDS011;23258;49.718;11.082;2024-02-21T05:46:56;4.47;;;4.05;;
37383;SDS011;23258;49.718;11.082;2024-02-21T05:49:28;6.60;;;3.15;;
37383;SDS011;23258;49.718;11.082;2024-02-21T05:51:59;8.25;;;3.72;;
37383;SDS011;23258;49.718;11.082;2024-02-21T05:54:29;8.73;;;3.97;;
37383;SDS011;23258;49.718;11.082;2024-02-21T05:56:59;5.45;;;3.70;;
37383;SDS011;23258;49.718;11.082;2024-02-21T05:59:29;6.20;;;3.58;;
37383;SDS011;23258;49.718;11.082;2024-02-21T06:01:58;4.68;;;4.03;;
37383;SDS011;23258;49.718;11.082;2024-02-21T06:04:33;5.97;;;4.03;;
37383;SDS011;23258;49.718;11.082;2024-02-21T06:07:03;5.93;;;3.92;;
37383;SDS011;23258;49.718;11.082;2024-02-21T06:09:33;5.20;;;3.88;;
37383;SDS011;23258;49.718;11.082;2024-02-21T06:12:03;8.82;;;4.40;;
37383;SDS011;23258;49.718;11.082;2024-02-21T06:14:33;12.20;;;4.07;;
37383;SDS011;23258;49.718;11.082;2024-02-21T06:17:03;7.70;;;4.35;;
37383;SDS011;23258;49.718;11.082;2024-02-21T06:19:36;6.07;;;3.92;;
37383;SDS011;23258;49.718;11.082;2024-02-21T06:22:06;6.35;;;3.85;;
37383;SDS011;23258;49.718;11.082;2024-02-21T06:24:35;6.88;;;3.55;;
37383;SDS011;23258;49.718;11.082;2024-02-21T06:27:05;6.60;;;3.28;;
37383;SDS011;23258;49.718;11.082;2024-02-21T06:29:36;6.13;;;4.60;;
37383;SDS011;23258;49.718;11.082;2024-02-21T06:32:06;4.75;;;3.78;;
37383;SDS011;23258;49.718;11.082;2024-02-21T06:34:39;4.30;;;3.70;;
37383;SDS011;23258;49.718;11.082;2024-02-21T06:37:09;6.70;;;4.10;;
37383;SDS011;23258;49.718;11.082;2024-02-21T06:39:38;3.72;;;3.42;;
37383;SDS011;23258;49.718;11.082;2024-02-21T06:42:08;5.45;;;4.88;;
37383;SDS011;23258;49.718;11.082;2024-02-21T06:44:38;9.02;;;4.60;;
37383;SDS011;23258;49.718;11.082;2024-02-21T06:47:08;5.75;;;4.28;;
37383;SDS011;23258;49.718;11.082;2024-02-21T06:49:40;4.03;;;3.72;;
37383;SDS011;23258;49.718;11.082;2024-02-21T06:52:10;5.80;;;3.97;;
37383;SDS011;23258;49.718;11.082;2024-02-21T06:54:43;6.97;;;4.10;;
37383;SDS011;23258;49.718;11.082;2024-02-21T06:57:13;4.65;;;3.80;;
37383;SDS011;23258;49.718;11.082;2024-02-21T06:59:42;4.93;;;3.95;;
37383;SDS011;23258;49.718;11.082;2024-02-21T07:02:12;5.22;;;4.07;;
37383;SDS011;23258;49.718;11.082;2024-02-21T07:04:45;7.65;;;4.30;;
37383;SDS011;23258;49.718;11.082;2024-02-21T07:07:15;4.20;;;3.70;;
37383;SDS011;23258;49.718;11.082;2024-02-21T07:09:45;7.15;;;3.92;;
37383;SDS011;23258;49.718;11.082;2024-02-21T07:12:15;4.55;;;3.90;;
37383;SDS011;23258;49.718;11.082;2024-02-21T07:14:45;6.15;;;4.13;;
37383;SDS011;23258;49.718;11.082;2024-02-21T07:17:15;6.45;;;4.47;;
37383;SDS011;23258;49.718;11.082;2024-02-21T07:19:47;8.98;;;4.45;;
37383;SDS011;23258;49.718;11.082;2024-02-21T07:22:17;9.23;;;3.90;;
37383;SDS011;23258;49.718;11.082;2024-02-21T07:24:47;4.07;;;3.67;;
37383;SDS011;23258;49.718;11.082;2024-02-21T07:27:17;4.97;;;3.63;;
37383;SDS011;23258;49.718;11.082;2024-02-21T07:29:46;5.05;;;4.00;;
37383;SDS011;23258;49.718;11.082;2024-02-21T07:32:16;5.95;;;4.18;;
37383;SDS011;23258;49.718;11.082;2024-02-21T07:34:48;6.47;;;3.78;;
37383;SDS011;23258;49.718;11.082;2024-02-21T07:37:18;9.20;;;4.60;;
37383;SDS011;23258;49.718;11.082;2024-02-21T07:39:48;9.10;;;6.20;;
37383;SDS011;23258;49.718;11.082;2024-02-21T07:42:18;14.07;;;8.40;;
37383;SDS011;23258;49.718;11.082;2024-02-21T07:44:47;6.75;;;4.10;;
37383;SDS011;23258;49.718;11.082;2024-02-21T07:47:17;30.17;;;15.15;;
37383;SDS011;23258;49.718;11.082;2024-02-21T07:49:50;22.50;;;10.25;;
37383;SDS011;23258;49.718;11.082;2024-02-21T07:52:19;13.52;;;5.07;;
37383;SDS011;23258;49.718;11.082;2024-02-21T07:54:49;4.82;;;4.07;;
37383;SDS011;23258;49.718;11.082;2024-02-21T07:57:19;10.18;;;4.32;;
37383;SDS011;23258;49.718;11.082;2024-02-21T07:59:49;9.32;;;4.32;;
37383;SDS011;23258;49.718;11.082;2024-02-21T08:02:19;7.57;;;4.93;;
37383;SDS011;23258;49.718;11.082;2024-02-21T08:04:51;5.03;;;4.15;;
37383;SDS011;23258;49.718;11.082;2024-02-21T08:07:21;5.25;;;4.13;;
37383;SDS011;23258;49.718;11.082;2024-02-21T08:09:51;7.15;;;4.30;;
37383;SDS011;23258;49.718;11.082;2024-02-21T08:12:20;9.75;;;4.78;;
37383;SDS011;23258;49.718;11.082;2024-02-21T08:14:50;4.80;;;4.32;;
37383;SDS011;23258;49.718;11.082;2024-02-21T08:17:20;5.95;;;4.55;;
37383;SDS011;23258;49.718;11.082;2024-02-21T08:19:52;4.65;;;4.18;;
37383;SDS011;23258;49.718;11.082;2024-02-21T08:22:22;7.07;;;4.38;;
37383;SDS011;23258;49.718;11.082;2024-02-21T08:24:53;10.02;;;4.88;;
37383;SDS011;23258;49.718;11.082;2024-02-21T08:27:22;6.07;;;4.22;;
37383;SDS011;23258;49.718;11.082;2024-02-21T08:29:52;4.00;;;3.70;;
37383;SDS011;23258;49.718;11.082;2024-02-21T08:32:22;4.90;;;4.25;;
37383;SDS011;23258;49.718;11.082;2024-02-21T08:34:54;5.07;;;4.05;;
37383;SDS011;23258;49.718;11.082;2024-02-21T08:37:24;6.07;;;4.47;;
37383;SDS011;23258;49.718;11.082;2024-02-21T08:39:54;8.95;;;4.57;;
37383;SDS011;23258;49.718;11.082;2024-02-21T08:42:24;12.43;;;4.38;;
37383;SDS011;23258;49.718;11.082;2024-02-21T08:44:53;9.05;;;4.25;;
37383;SDS011;23258;49.718;11.082;2024-02-21T08:47:23;6.22;;;4.07;;
37383;SDS011;23258;49.718;11.082;2024-02-21T08:49:56;4.57;;;4.15;;
37383;SDS011;23258;49.718;11.082;2024-02-21T08:52:40;11.40;;;4.40;;
37383;SDS011;23258;49.718;11.082;2024-02-21T08:55:10;5.72;;;4.35;;
37383;SDS011;23258;49.718;11.082;2024-02-21T08:57:40;3.60;;;3.30;;
37383;SDS011;23258;49.718;11.082;2024-02-21T09:00:10;6.78;;;4.13;;
37383;SDS011;23258;49.718;11.082;2024-02-21T09:02:40;5.90;;;4.28;;
37383;SDS011;23258;49.718;11.082;2024-02-21T09:05:13;7.60;;;3.92;;
37383;SDS011;23258;49.718;11.082;2024-02-21T09:07:43;8.35;;;4.22;;
37383;SDS011;23258;49.718;11.082;2024-02-21T09:10:13;7.95;;;3.70;;
37383;SDS011;23258;49.718;11.082;2024-02-21T09:12:43;5.95;;;3.13;;
37383;SDS011;23258;49.718;11.082;2024-02-21T09:15:12;5.38;;;3.10;;
37383;SDS011;23258;49.718;11.082;2024-02-21T09:17:45;3.08;;;2.50;;
37383;SDS011;23258;49.718;11.082;2024-02-21T09:20:18;4.10;;;3.70;;
37383;SDS011;23258;49.718;11.082;2024-02-21T09:22:47;3.17;;;2.67;;
37383;SDS011;23258;49.718;11.082;2024-02-21T09:25:19;2.80;;;2.60;;
37383;SDS011;23258;49.718;11.082;2024-02-21T09:27:48;5.35;;;3.15;;
37383;SDS011;23258;49.718;11.082;2024-02-21T09:30:18;5.10;;;3.33;;
37383;SDS011;23258;49.718;11.082;2024-02-21T09:32:48;4.47;;;2.83;;
37383;SDS011;23258;49.718;11.082;2024-02-21T09:35:21;4.93;;;2.80;;
37383;SDS011;23258;49.718;11.082;2024-02-21T09:37:53;5.43;;;2.67;;
37383;SDS011;23258;49.718;11.082;2024-02-21T09:40:23;3.63;;;2.33;;
37383;SDS011;23258;49.718;11.082;2024-02-21T09:42:55;4.43;;;2.58;;
37383;SDS011;23258;49.718;11.082;2024-02-21T09:45:28;5.28;;;2.80;;
37383;SDS011;23258;49.718;11.082;2024-02-21T09:48:02;5.57;;;2.17;;
37383;SDS011;23258;49.718;11.082;2024-02-21T09:50:39;4.15;;;2.05;;
37383;SDS011;23258;49.718;11.082;2024-02-21T09:53:11;4.85;;;2.50;;
37383;SDS011;23258;49.718;11.082;2024-02-21T09:55:42;4.68;;;2.40;;
37383;SDS011;23258;49.718;11.082;2024-02-21T09:58:12;6.43;;;2.28;;
37383;SDS011;23258;49.718;11.082;2024-02-21T10:00:42;3.63;;;2.58;;
37383;SDS011;23258;49.718;11.082;2024-02-21T10:03:12;3.35;;;2.08;;
37383;SDS011;23258;49.718;11.082;2024-02-21T10:05:46;4.35;;;2.60;;
37383;SDS011;23258;49.718;11.082;2024-02-21T10:08:18;5.80;;;2.55;;
37383;SDS011;23258;49.718;11.082;2024-02-21T10:10:49;4.25;;;2.60;;
37383;SDS011;23258;49.718;11.082;2024-02-21T10:13:24;3.63;;;2.33;;
37383;SDS011;23258;49.718;11.082;2024-02-21T10:16:03;4.95;;;2.55;;
37383;SDS011;23258;49.718;11.082;2024-02-21T10:18:33;2.17;;;1.98;;
37383;SDS011;23258;49.718;11.082;2024-02-21T10:21:07;3.03;;;2.13;;
37383;SDS011;23258;49.718;11.082;2024-02-21T10:23:43;5.70;;;2.95;;
37383;SDS011;23258;49.718;11.082;2024-02-21T10:26:14;4.40;;;1.67;;
37383;SDS011;23258;49.718;11.082;2024-02-21T10:28:44;2.90;;;1.95;;
37383;SDS011;23258;49.718;11.082;2024-02-21T10:31:24;4.00;;;2.10;;
37383;SDS011;23258;49.718;11.082;2024-02-21T10:33:55;2.58;;;2.10;;
37383;SDS011;23258;49.718;11.082;2024-02-21T10:36:28;2.53;;;2.40;;
37383;SDS011;23258;49.718;11.082;2024-02-21T10:38:58;4.82;;;2.28;;
37383;SDS011;23258;49.718;11.082;2024-02-21T10:41:28;2.50;;;2.30;;
37383;SDS011;23258;49.718;11.082;2024-02-21T10:43:59;4.00;;;2.80;;
37383;SDS011;23258;49.718;11.082;2024-02-21T10:46:32;2.72;;;1.65;;
37383;SDS011;23258;49.718;11.082;2024-02-21T10:49:03;2.85;;;1.88;;
37383;SDS011;23258;49.718;11.082;2024-02-21T10:51:40;5.15;;;2.40;;
37383;SDS011;23258;49.718;11.082;2024-02-21T10:54:15;3.65;;;2.35;;
37383;SDS011;23258;49.718;11.082;2024-02-21T10:56:49;5.45;;;2.45;;
37383;SDS011;23258;49.718;11.082;2024-02-21T10:59:20;5.88;;;2.35;;
37383;SDS011;23258;49.718;11.082;2024-02-21T11:01:50;4.22;;;2.15;;
37383;SDS011;23258;49.718;11.082;2024-02-21T11:04:24;5.43;;;2.45;;
37383;SDS011;23258;49.718;11.082;2024-02-21T11:06:58;4.68;;;2.15;;
37383;SDS011;23258;49.718;11.082;2024-02-21T11:09:31;3.28;;;2.05;;
37383;SDS011;23258;49.718;11.082;2024-02-21T11:12:02;3.72;;;2.55;;
37383;SDS011;23258;49.718;11.082;2024-02-21T11:14:32;3.95;;;2.25;;
37383;SDS011;23258;49.718;11.082;2024-02-21T11:17:13;2.67;;;1.75;;
37383;SDS011;23258;49.718;11.082;2024-02-21T11:19:44;5.00;;;2.17;;
37383;SDS011;23258;49.718;11.082;2024-02-21T11:22:17;5.70;;;2.00;;
37383;SDS011;23258;49.718;11.082;2024-02-21T11:24:49;3.00;;;2.17;;
37383;SDS011;23258;49.718;11.082;2024-02-21T11:27:22;3.50;;;2.42;;
37383;SDS011;23258;49.718;11.082;2024-02-21T11:29:54;3.53;;;1.75;;
37383;SDS011;23258;49.718;11.082;2024-02-21T11:32:25;3.58;;;1.67;;
37383;SDS011;23258;49.718;11.082;2024-02-21T11:34:57;4.53;;;1.92;;
37383;SDS011;23258;49.718;11.082;2024-02-21T11:37:32;3.00;;;2.08;;
37383;SDS011;23258;49.718;11.082;2024-02-21T11:40:04;2.35;;;2.20;;
37383;SDS011;23258;49.718;11.082;2024-02-21T11:42:38;2.00;;;1.88;;
37383;SDS011;23258;49.718;11.082;2024-02-21T11:45:09;2.08;;;1.95;;
37383;SDS011;23258;49.718;11.082;2024-02-21T11:47:38;4.97;;;2.47;;
37383;SDS011;23258;49.718;11.082;2024-02-21T11:50:09;4.35;;;1.88;;
37383;SDS011;23258;49.718;11.082;2024-02-21T11:52:45;1.63;;;1.52;;
37383;SDS011;23258;49.718;11.082;2024-02-21T11:55:15;3.08;;;1.90;;
37383;SDS011;23258;49.718;11.082;2024-02-21T11:57:45;2.80;;;1.85;;
37383;SDS011;23258;49.718;11.082;2024-02-21T12:00:17;3.55;;;2.40;;
37383;SDS011;23258;49.718;11.082;2024-02-21T12:02:47;3.50;;;2.63;;
37383;SDS011;23258;49.718;11.082;2024-02-21T12:05:18;4.00;;;2.00;;
37383;SDS011;23258;49.718;11.082;2024-02-21T12:07:51;5.03;;;2.38;;
37383;SDS011;23258;49.718;11.082;2024-02-21T12:10:22;3.70;;;1.90;;
37383;SDS011;23258;49.718;11.082;2024-02-21T12:12:51;6.07;;;2.22;;
37383;SDS011;23258;49.718;11.082;2024-02-21T12:15:25;3.97;;;2.25;;
37383;SDS011;23258;49.718;11.082;2024-02-21T12:17:54;3.80;;;1.90;;
37383;SDS011;23258;49.718;11.082;2024-02-21T12:20:25;1.75;;;1.65;;
37383;SDS011;23258;49.718;11.082;2024-02-21T12:22:57;2.53;;;1.58;;
37383;SDS011;23258;49.718;11.082;2024-02-21T12:25:30;4.07;;;2.05;;
37383;SDS011;23258;49.718;11.082;2024-02-21T12:28:00;2.92;;;2.20;;
37383;SDS011;23258;49.718;11.082;2024-02-21T12:30:30;3.13;;;1.90;;
37383;SDS011;23258;49.718;11.082;2024-02-21T12:33:02;4.25;;;2.17;;
37383;SDS011;23258;49.718;11.082;2024-02-21T12:35:32;2.67;;;1.60;;
37383;SDS011;23258;49.718;11.082;2024-02-21T12:38:04;3.60;;;1.90;;
37383;SDS011;23258;49.718;11.082;2024-02-21T12:40:34;2.30;;;1.73;;
37383;SDS011;23258;49.718;11.082;2024-02-21T12:43:05;3.53;;;1.70;;
37383;SDS011;23258;49.718;11.082;2024-02-21T12:45:35;2.38;;;1.50;;
37383;SDS011;23258;49.718;11.082;2024-02-21T12:48:05;2.88;;;2.10;;
37383;SDS011;23258;49.718;11.082;2024-02-21T12:50:35;3.70;;;2.28;;
37383;SDS011;23258;49.718;11.082;2024-02-21T12:53:05;3.10;;;2.25;;
37383;SDS011;23258;49.718;11.082;2024-02-21T12:55:48;4.13;;;2.38;;
37383;SDS011;23258;49.718;11.082;2024-02-21T12:58:18;5.30;;;2.92;;
37383;SDS011;23258;49.718;11.082;2024-02-21T13:00:48;4.82;;;2.15;;
37383;SDS011;23258;49.718;11.082;2024-02-21T13:03:17;5.70;;;1.88;;
37383;SDS011;23258;49.718;11.082;2024-02-21T13:05:48;1.63;;;1.25;;
37383;SDS011;23258;49.718;11.082;2024-02-21T13:08:20;4.63;;;1.75;;
37383;SDS011;23258;49.718;11.082;2024-02-21T13:10:50;1.38;;;1.25;;
37383;SDS011;23258;49.718;11.082;2024-02-21T13:13:21;4.38;;;1.75;;
37383;SDS011;23258;49.718;11.082;2024-02-21T13:15:51;2.80;;;1.42;;
37383;SDS011;23258;49.718;11.082;2024-02-21T13:18:21;4.90;;;1.83;;
37383;SDS011;23258;49.718;11.082;2024-02-21T13:20:51;2.25;;;1.77;;
37383;SDS011;23258;49.718;11.082;2024-02-21T13:23:23;3.50;;;1.95;;
37383;SDS011;23258;49.718;11.082;2024-02-21T13:25:53;2.35;;;1.33;;
37383;SDS011;23258;49.718;11.082;2024-02-21T13:28:23;2.47;;;1.95;;
37383;SDS011;23258;49.718;11.082;2024-02-21T13:30:52;2.50;;;1.50;;
37383;SDS011;23258;49.718;11.082;2024-02-21T13:33:22;2.92;;;1.48;;
37383;SDS011;23258;49.718;11.082;2024-02-21T13:35:52;3.20;;;1.80;;
37383;SDS011;23258;49.718;11.082;2024-02-21T13:38:24;2.63;;;2.00;;
37383;SDS011;23258;49.718;11.082;2024-02-21T13:40:55;3.47;;;2.15;;
37383;SDS011;23258;49.718;11.082;2024-02-21T13:43:27;2.53;;;1.40;;
37383;SDS011;23258;49.718;11.082;2024-02-21T13:45:58;9.18;;;2.00;;
37383;SDS011;23258;49.718;11.082;2024-02-21T13:48:29;2.30;;;1.92;;
37383;SDS011;23258;49.718;11.082;2024-02-21T13:51:00;2.55;;;1.50;;
37383;SDS011;23258;49.718;11.082;2024-02-21T13:53:33;4.38;;;1.55;;
37383;SDS011;23258;49.718;11.082;2024-02-21T13:56:04;3.88;;;1.70;;
37383;SDS011;23258;49.718;11.082;2024-02-21T13:58:36;2.25;;;1.77;;
37383;SDS011;23258;49.718;11.082;2024-02-21T14:01:05;1.98;;;1.70;;
37383;SDS011;23258;49.718;11.082;2024-02-21T14:03:36;2.15;;;1.58;;
37383;SDS011;23258;49.718;11.082;2024-02-21T14:06:06;2.20;;;2.00;;
37383;SDS011;23258;49.718;11.082;2024-02-21T14:08:38;2.00;;;1.33;;
37383;SDS011;23258;49.718;11.082;2024-02-21T14:11:09;3.50;;;1.65;;
37383;SDS011;23258;49.718;11.082;2024-02-21T14:13:41;3.92;;;1.83;;
37383;SDS011;23258;49.718;11.082;2024-02-21T14:16:11;4.63;;;1.75;;
37383;SDS011;23258;49.718;11.082;2024-02-21T14:18:41;3.40;;;1.70;;
37383;SDS011;23258;49.718;11.082;2024-02-21T14:21:11;2.22;;;1.27;;
37383;SDS011;23258;49.718;11.082;2024-02-21T14:23:43;3.33;;;1.65;;
37383;SDS011;23258;49.718;11.082;2024-02-21T14:26:13;1.80;;;1.67;;
37383;SDS011;23258;49.718;11.082;2024-02-21T14:28:43;4.35;;;1.67;;
37383;SDS011;23258;49.718;11.082;2024-02-21T14:31:13;1.48;;;1.38;;
37383;SDS011;23258;49.718;11.082;2024-02-21T14:33:43;1.95;;;1.20;;
37383;SDS011;23258;49.718;11.082;2024-02-21T14:36:14;3.67;;;1.55;;
37383;SDS011;23258;49.718;11.082;2024-02-21T14:38:47;1.52;;;1.42;;
37383;SDS011;23258;49.718;11.082;2024-02-21T14:41:18;1.77;;;1.35;;
37383;SDS011;23258;49.718;11.082;2024-02-21T14:43:48;1.30;;;1.30;;
37383;SDS011;23258;49.718;11.082;2024-02-21T14:46:18;1.60;;;1.30;;
37383;SDS011;23258;49.718;11.082;2024-02-21T14:48:48;2.75;;;1.50;;
37383;SDS011;23258;49.718;11.082;2024-02-21T14:51:18;2.00;;;1.90;;
37383;SDS011;23258;49.718;11.082;2024-02-21T14:53:51;5.15;;;1.58;;